Time;durP1;ratioP1;P1;durP2;ratioP2;P2;SDS_P1;SDS_P2;PMS_P1;PMS_P2;Temp;Humidity;BMP_temperature;BMP_pressure;BME280_temperature;BME280_humidity;BME280_pressure;Samples;Min_cycle;Max_cycle;Signal;HPM_P1;HPM_P2
2023/06/30 00:01:54;;;;;;;6.30;5.70;;;;;;;13.98;68.35;94904.38;5069519;28;20097;-73
2023/06/30 00:04:22;;;;;;;7.25;5.78;;;;;;;13.92;68.14;94902.34;5069296;28;20032;-73
2023/06/30 00:06:50;;;;;;;5.70;5.20;;;;;;;13.90;68.13;94914.72;5070794;28;20134;-73
2023/06/30 00:09:18;;;;;;;6.28;5.68;;;;;;;13.79;67.79;94897.44;5036662;28;20038;-73
2023/06/30 00:11:43;;;;;;;6.35;5.70;;;;;;;13.92;67.49;94904.97;5068033;28;20132;-73
2023/06/30 00:14:09;;;;;;;5.82;5.32;;;;;;;13.73;67.49;94883.19;5021122;28;20029;-73
2023/06/30 00:16:34;;;;;;;8.82;5.32;;;;;;;13.80;67.75;94905.16;5061265;28;20028;-73
2023/06/30 00:19:00;;;;;;;6.25;5.65;;;;;;;13.77;67.90;94900.22;5068233;28;20083;-73
2023/06/30 00:21:26;;;;;;;6.25;5.65;;;;;;;13.80;68.40;94906.94;5051609;28;20410;-73
2023/06/30 00:23:51;;;;;;;6.55;5.70;;;;;;;13.71;68.74;94908.63;5069328;28;20025;-73
2023/06/30 00:26:16;;;;;;;6.25;5.63;;;;;;;13.72;68.46;94894.59;5070234;28;20033;-73
2023/06/30 00:28:42;;;;;;;6.25;5.50;;;;;;;13.63;68.54;94891.06;5070456;28;20021;-73
2023/06/30 00:31:07;;;;;;;5.55;5.05;;;;;;;13.75;68.66;94909.97;5052069;28;20048;-73
2023/06/30 00:33:33;;;;;;;5.93;5.25;;;;;;;13.79;68.46;94908.75;5054872;28;20028;-73
2023/06/30 00:35:58;;;;;;;6.03;5.43;;;;;;;13.67;68.39;94896.81;5070531;28;20029;-73
2023/06/30 00:38:23;;;;;;;6.35;5.75;;;;;;;13.58;68.59;94900.31;5067789;28;20098;-73
2023/06/30 00:40:49;;;;;;;6.18;5.57;;;;;;;13.64;68.41;94899.72;5069186;28;20040;-73
2023/06/30 00:43:14;;;;;;;6.57;5.50;;;;;;;13.49;68.96;94906.38;5070546;28;20032;-73
2023/06/30 00:45:40;;;;;;;5.70;5.20;;;;;;;13.47;69.03;94898.69;5068961;28;20024;-73
2023/06/30 00:48:05;;;;;;;6.18;5.57;;;;;;;13.40;69.84;94914.09;5063713;28;20086;-73
2023/06/30 00:50:31;;;;;;;6.50;4.68;;;;;;;13.41;69.81;94899.25;5052429;28;20036;-73
2023/06/30 00:52:56;;;;;;;9.90;5.53;;;;;;;13.43;69.71;94912.16;5052151;28;20040;-73
2023/06/30 00:55:21;;;;;;;7.15;5.88;;;;;;;13.49;69.98;94911.59;5051980;28;20033;-74
2023/06/30 00:57:47;;;;;;;5.90;5.30;;;;;;;13.39;69.67;94895.97;5055197;28;20017;-73
2023/06/30 01:00:12;;;;;;;6.40;5.25;;;;;;;13.35;70.04;94898.03;5068867;28;20036;-73
2023/06/30 01:03:20;;;;;;;5.88;5.28;;;;;;;13.34;70.25;94898.97;5069017;28;20024;-73
2023/06/30 01:05:48;;;;;;;7.03;5.70;;;;;;;13.29;70.12;94893.41;5054031;28;20040;-73
2023/06/30 01:08:23;;;;;;;7.10;5.70;;;;;;;13.27;70.40;94894.50;5055444;28;20039;-73
2023/06/30 01:10:48;;;;;;;6.32;5.72;;;;;;;13.31;70.24;94896.66;5056474;28;20116;-73
2023/06/30 01:13:14;;;;;;;6.07;5.47;;;;;;;13.30;70.51;94883.78;5072362;28;20048;-73
2023/06/30 01:15:40;;;;;;;6.25;5.65;;;;;;;13.26;70.65;94890.22;5055025;28;20033;-73
2023/06/30 01:18:05;;;;;;;6.53;5.35;;;;;;;13.25;70.45;94894.59;5039303;28;20028;-73
2023/06/30 01:20:32;;;;;;;6.93;5.60;;;;;;;13.23;70.68;94900.91;5055894;28;20406;-73
2023/06/30 01:23:20;;;;;;;6.65;5.97;;;;;;;13.17;70.53;94899.69;5072475;28;20452;-73
2023/06/30 01:25:47;;;;;;;6.57;5.63;;;;;;;13.11;70.65;94887.22;5072363;28;20028;-73
2023/06/30 01:28:12;;;;;;;6.07;5.45;;;;;;;13.15;70.36;94893.81;5055714;28;20042;-73
2023/06/30 01:30:38;;;;;;;6.60;5.80;;;;;;;13.10;70.48;94899.44;5055762;28;20114;-73
2023/06/30 01:33:03;;;;;;;6.45;5.85;;;;;;;13.12;70.64;94891.47;5071996;28;20029;-73
2023/06/30 01:35:29;;;;;;;7.25;5.90;;;;;;;13.13;70.99;94891.34;5055639;28;20031;-73
2023/06/30 01:37:54;;;;;;;6.18;5.57;;;;;;;13.09;70.94;94881.31;5072163;28;20079;-73
2023/06/30 01:40:20;;;;;;;7.63;5.90;;;;;;;12.91;71.46;94866.41;5055588;28;20083;-74
2023/06/30 01:42:47;;;;;;;7.70;5.75;;;;;;;13.07;71.40;94883.25;5054410;28;20371;-73
2023/06/30 01:45:12;;;;;;;6.50;5.80;;;;;;;12.94;71.77;94880.94;5055486;28;20028;-73
2023/06/30 01:47:38;;;;;;;8.40;7.00;;;;;;;13.13;71.49;94883.50;5055549;28;20510;-73
2023/06/30 01:50:04;;;;;;;7.50;6.70;;;;;;;12.82;73.37;94888.09;5071981;28;20041;-73
2023/06/30 01:52:29;;;;;;;8.00;7.20;;;;;;;12.62;74.50;94882.06;5070585;28;20491;-73
2023/06/30 01:54:55;;;;;;;7.57;6.88;;;;;;;12.75;73.92;94881.78;5073178;28;20107;-73
2023/06/30 01:57:20;;;;;;;7.38;6.68;;;;;;;12.83;74.01;94874.09;5071805;28;20433;-73
2023/06/30 01:59:45;;;;;;;7.38;6.68;;;;;;;12.81;73.90;94880.41;5070943;28;20037;-73
2023/06/30 02:02:11;;;;;;;8.98;6.63;;;;;;;12.90;73.15;94879.59;5072863;28;20397;-73
2023/06/30 02:04:36;;;;;;;7.63;6.43;;;;;;;12.75;73.56;94881.78;5071824;28;20028;-75
2023/06/30 02:07:02;;;;;;;8.02;6.70;;;;;;;12.66;74.30;94887.81;5071335;28;20043;-73
2023/06/30 02:09:27;;;;;;;7.20;6.50;;;;;;;12.70;73.69;94884.81;5071040;28;20115;-73
2023/06/30 02:11:53;;;;;;;7.55;6.65;;;;;;;12.65;73.86;94883.59;5071016;28;20036;-73
2023/06/30 02:14:18;;;;;;;9.02;6.63;;;;;;;12.53;73.92;94883.69;5071398;28;20415;-73
2023/06/30 02:16:44;;;;;;;6.40;5.80;;;;;;;12.51;73.33;94879.59;5072303;28;20028;-73
2023/06/30 02:19:09;;;;;;;6.55;5.75;;;;;;;12.53;72.80;94878.47;5048811;28;20029;-73
2023/06/30 02:21:35;;;;;;;6.60;5.68;;;;;;;12.62;72.35;94881.22;5060724;28;20032;-74
2023/06/30 02:24:00;;;;;;;6.88;6.28;;;;;;;12.62;72.43;94886.44;5069953;28;20025;-73
2023/06/30 02:26:25;;;;;;;6.45;5.85;;;;;;;12.59;72.36;94890.16;5071816;28;20016;-73
2023/06/30 02:28:51;;;;;;;6.30;5.70;;;;;;;12.50;72.80;94877.94;5070320;28;20422;-73
2023/06/30 02:31:16;;;;;;;6.72;6.13;;;;;;;12.51;72.57;94877.00;5071198;28;20032;-73
2023/06/30 02:33:42;;;;;;;6.50;5.90;;;;;;;12.47;73.06;94881.66;5054344;28;20032;-73
2023/06/30 02:36:07;;;;;;;6.45;5.75;;;;;;;12.53;73.10;94888.91;5053625;28;20078;-73
2023/06/30 02:38:32;;;;;;;7.50;6.65;;;;;;;12.50;73.13;94889.19;5070778;28;20529;-73
2023/06/30 02:40:58;;;;;;;8.23;6.28;;;;;;;12.34;73.22;94869.84;5071086;28;20028;-73
2023/06/30 02:43:23;;;;;;;6.70;6.07;;;;;;;12.48;72.94;94880.72;5054603;28;20036;-73
2023/06/30 02:45:49;;;;;;;6.63;5.97;;;;;;;12.42;73.15;94880.41;5070452;28;20468;-73
2023/06/30 02:48:14;;;;;;;7.90;6.30;;;;;;;12.40;73.18;94879.75;5072058;28;20029;-73
2023/06/30 02:50:39;;;;;;;6.63;5.93;;;;;;;12.31;73.20;94878.75;5070496;28;20024;-73
2023/06/30 02:53:05;;;;;;;8.35;6.35;;;;;;;12.36;73.39;94881.78;5054275;28;20040;-73
2023/06/30 02:55:32;;;;;;;6.82;6.13;;;;;;;12.34;73.45;94875.91;5071514;28;20037;-73
2023/06/30 02:57:57;;;;;;;9.68;6.10;;;;;;;12.33;73.74;94876.84;5072113;28;20025;-73
2023/06/30 03:00:23;;;;;;;6.85;6.15;;;;;;;12.25;73.74;94879.31;5070333;28;20085;-73
2023/06/30 03:02:48;;;;;;;7.57;6.30;;;;;;;12.15;74.05;94879.31;5070185;28;20040;-73
2023/06/30 03:05:14;;;;;;;6.70;6.05;;;;;;;12.21;73.97;94873.56;5069823;28;20395;-73
2023/06/30 03:07:39;;;;;;;7.68;6.07;;;;;;;12.22;74.09;94880.38;5070346;28;20528;-73
2023/06/30 03:10:05;;;;;;;6.90;6.20;;;;;;;12.19;74.22;94864.22;5071545;28;20032;-73
2023/06/30 03:12:30;;;;;;;6.72;6.05;;;;;;;12.19;74.30;94864.22;5070356;28;20032;-73
2023/06/30 03:14:56;;;;;;;7.07;6.38;;;;;;;12.23;74.40;94865.59;5071154;28;20403;-73
2023/06/30 03:17:21;;;;;;;7.55;6.10;;;;;;;12.23;74.22;94871.66;5068226;28;20063;-73
2023/06/30 03:19:47;;;;;;;7.10;6.45;;;;;;;12.26;74.37;94873.16;5069546;28;20032;-73
2023/06/30 03:22:12;;;;;;;7.43;6.68;;;;;;;12.29;74.07;94870.28;5068604;28;20044;-73
2023/06/30 03:24:38;;;;;;;6.85;6.15;;;;;;;12.20;74.55;94871.06;5070655;28;20498;-73
2023/06/30 03:27:04;;;;;;;8.13;6.55;;;;;;;12.21;74.62;94867.53;5068780;28;20483;-73
2023/06/30 03:29:29;;;;;;;7.30;6.22;;;;;;;12.16;74.51;94860.09;5069200;28;20043;-73
2023/06/30 03:31:55;;;;;;;6.63;5.95;;;;;;;12.41;74.12;94870.97;5049699;28;20036;-74
2023/06/30 03:34:20;;;;;;;6.95;6.30;;;;;;;12.59;73.12;94865.88;5048523;28;20025;-73
2023/06/30 03:36:45;;;;;;;7.00;6.30;;;;;;;12.72;72.67;94867.22;5048510;28;20051;-73
2023/06/30 03:39:11;;;;;;;7.53;6.70;;;;;;;12.83;72.46;94858.44;5021598;28;20426;-73
2023/06/30 03:41:37;;;;;;;6.80;6.10;;;;;;;12.80;72.70;94873.56;5048487;28;20519;-73
2023/06/30 03:44:02;;;;;;;7.25;6.55;;;;;;;12.78;72.94;94860.66;5058205;28;20035;-73
2023/06/30 03:46:27;;;;;;;9.05;6.22;;;;;;;12.84;73.32;94875.75;5050974;28;20036;-73
2023/06/30 03:48:53;;;;;;;7.80;7.00;;;;;;;13.09;73.69;94878.69;5067470;28;20494;-73
2023/06/30 03:51:18;;;;;;;7.93;7.18;;;;;;;13.17;73.94;94882.25;5053115;28;20119;-73
2023/06/30 03:53:43;;;;;;;8.30;6.93;;;;;;;13.28;73.67;94875.25;5059675;28;20017;-73
2023/06/30 03:56:09;;;;;;;9.18;8.27;;;;;;;13.41;73.50;94878.38;5059965;28;20036;-73
2023/06/30 03:58:35;;;;;;;8.60;7.60;;;;;;;13.63;72.92;94879.81;5044883;28;20029;-74
2023/06/30 04:01:00;;;;;;;9.63;7.90;;;;;;;13.77;72.58;94881.94;5067014;28;20039;-73
2023/06/30 04:03:26;;;;;;;9.15;8.25;;;;;;;13.75;72.96;94881.25;5063251;28;20032;-73
2023/06/30 04:05:52;;;;;;;10.07;7.85;;;;;;;13.94;72.27;94871.69;5063819;28;20032;-73
2023/06/30 04:08:18;;;;;;;8.57;7.65;;;;;;;14.18;72.32;94873.72;5043680;28;20139;-73
2023/06/30 04:10:43;;;;;;;8.43;7.63;;;;;;;14.46;70.88;94892.81;5062477;28;20410;-73
2023/06/30 04:13:09;;;;;;;6.60;5.70;;;;;;;15.56;66.26;94878.44;5061440;28;20028;-73
2023/06/30 04:15:34;;;;;;;5.82;5.13;;;;;;;16.71;61.34;94884.88;5066761;28;20524;-73
2023/06/30 04:18:00;;;;;;;6.78;6.07;;;;;;;17.36;58.13;94887.50;5070500;28;20033;-74
2023/06/30 04:20:26;;;;;;;5.68;5.07;;;;;;;18.39;55.80;94875.34;5069811;28;20142;-75
2023/06/30 04:22:51;;;;;;;6.20;4.45;;;;;;;19.11;53.82;94883.72;5059364;28;20051;-73
2023/06/30 04:25:17;;;;;;;5.30;4.80;;;;;;;20.02;52.03;94860.72;5048336;28;20021;-73
2023/06/30 04:27:43;;;;;;;4.95;4.50;;;;;;;20.47;50.26;94864.06;5040280;28;20036;-73
2023/06/30 04:30:08;;;;;;;4.95;4.20;;;;;;;21.07;47.64;94867.31;5048238;28;20044;-73
2023/06/30 04:32:34;;;;;;;5.07;4.57;;;;;;;21.30;46.73;94866.28;5041717;28;20455;-73
2023/06/30 04:34:59;;;;;;;4.90;3.58;;;;;;;21.44;46.00;94875.16;5052357;28;20568;-73
2023/06/30 04:37:28;;;;;;;4.68;4.13;;;;;;;21.42;45.42;94876.19;5058468;28;20057;-73
2023/06/30 04:39:57;;;;;;;4.20;3.80;;;;;;;21.78;45.58;94856.66;5051464;28;20037;-73
2023/06/30 04:42:22;;;;;;;4.90;3.90;;;;;;;21.96;44.96;94855.34;5058740;28;20071;-73
2023/06/30 04:44:48;;;;;;;4.25;3.80;;;;;;;22.10;43.97;94862.31;5045497;28;20402;-73
2023/06/30 04:47:15;;;;;;;4.78;3.60;;;;;;;21.51;45.39;94849.59;5063029;28;20028;-73
2023/06/30 04:49:41;;;;;;;4.35;3.90;;;;;;;21.26;47.00;94855.28;5054771;28;20060;-73
2023/06/30 04:52:06;;;;;;;3.83;3.50;;;;;;;20.86;47.20;94862.06;5058475;28;20032;-73
2023/06/30 04:54:32;;;;;;;4.40;4.00;;;;;;;20.38;48.27;94859.09;5050551;28;20044;-73
2023/06/30 04:56:57;;;;;;;4.32;3.92;;;;;;;19.57;49.46;94774.78;5057380;28;20032;-73
2023/06/30 04:59:23;;;;;;;4.47;4.05;;;;;;;20.27;49.63;94866.50;5070388;28;20044;-73
2023/06/30 05:01:49;;;;;;;4.25;3.85;;;;;;;20.06;49.05;94862.00;5053921;28;20035;-73
2023/06/30 05:04:14;;;;;;;5.63;4.18;;;;;;;20.25;49.20;94865.88;5054192;28;20059;-73
2023/06/30 05:06:40;;;;;;;6.72;4.13;;;;;;;20.51;50.22;94867.97;5070519;28;20375;-73
2023/06/30 05:09:05;;;;;;;8.52;5.03;;;;;;;20.38;50.27;94854.66;5070802;28;20569;-73
2023/06/30 05:11:31;;;;;;;5.40;4.90;;;;;;;20.30;50.49;94863.47;5054454;28;20090;-73
2023/06/30 05:13:57;;;;;;;5.30;4.80;;;;;;;20.31;50.12;94851.94;5070264;28;20040;-73
2023/06/30 05:16:22;;;;;;;6.20;4.97;;;;;;;20.17;51.13;94859.88;5070580;28;20029;-75
2023/06/30 05:18:48;;;;;;;8.85;5.30;;;;;;;20.11;51.04;94855.34;5066939;28;20514;-72
2023/06/30 05:21:13;;;;;;;7.22;4.95;;;;;;;20.13;51.08;94853.34;5070037;28;20031;-73
2023/06/30 05:24:12;;;;;;;;;;;;;;;;;;;;;
2023/06/30 05:26:39;;;;;;;6.90;5.68;;;;;;;19.88;52.41;94861.56;5047394;28;20399;-71
2023/06/30 05:29:06;;;;;;;8.25;6.50;;;;;;;19.75;52.87;94870.13;5060066;28;20075;-72
2023/06/30 05:31:32;;;;;;;5.82;5.32;;;;;;;19.72;53.43;94867.81;5061146;28;20029;-71
2023/06/30 05:33:57;;;;;;;6.40;5.57;;;;;;;19.95;52.63;94846.66;5047742;28;20062;-71
2023/06/30 05:36:22;;;;;;;7.30;5.88;;;;;;;19.62;54.03;94878.63;5046779;28;20090;-71
2023/06/30 05:38:48;;;;;;;6.43;5.82;;;;;;;18.71;56.81;94880.38;5060334;28;20037;-71
2023/06/30 05:41:13;;;;;;;7.45;6.00;;;;;;;19.04;55.77;94874.88;5062303;28;20021;-71
2023/06/30 05:43:40;;;;;;;7.15;6.50;;;;;;;19.04;55.74;94874.06;5059258;28;20024;-71
2023/06/30 05:46:05;;;;;;;6.47;5.88;;;;;;;19.26;55.27;94862.69;5063025;28;20036;-72
2023/06/30 05:48:31;;;;;;;8.32;6.25;;;;;;;18.83;57.63;94883.44;5067586;28;20021;-72
2023/06/30 05:50:56;;;;;;;7.40;6.30;;;;;;;18.82;56.41;94883.63;5068690;28;20037;-72
2023/06/30 05:53:22;;;;;;;8.65;6.03;;;;;;;18.92;57.01;94884.22;5068186;28;20033;-72
2023/06/30 05:55:47;;;;;;;6.68;6.03;;;;;;;19.05;56.91;94886.22;5067492;28;20032;-72
2023/06/30 05:58:13;;;;;;;8.38;6.63;;;;;;;19.22;56.50;94881.63;5067533;28;20067;-72
2023/06/30 06:00:38;;;;;;;6.80;6.07;;;;;;;19.48;55.83;94886.50;5033096;28;20044;-72
2023/06/30 06:03:04;;;;;;;10.63;6.43;;;;;;;19.27;55.68;94884.56;5068346;28;20025;-72
2023/06/30 06:05:29;;;;;;;7.70;6.50;;;;;;;19.40;55.89;94880.31;5071162;28;20040;-72
2023/06/30 06:07:54;;;;;;;7.82;5.90;;;;;;;19.72;55.42;94870.47;5068922;28;20035;-73
2023/06/30 06:10:20;;;;;;;6.85;6.07;;;;;;;19.30;56.27;94895.53;5066587;28;20049;-72
2023/06/30 06:12:45;;;;;;;8.00;6.30;;;;;;;19.67;54.55;94890.44;5066560;28;20032;-72
2023/06/30 06:15:11;;;;;;;6.65;6.00;;;;;;;19.56;55.40;94892.53;5065133;28;20040;-72
2023/06/30 06:17:36;;;;;;;8.75;5.80;;;;;;;19.59;54.12;94883.44;5063565;28;20478;-72
2023/06/30 06:20:02;;;;;;;7.90;5.78;;;;;;;19.29;54.84;94883.38;5051193;28;20494;-71
2023/06/30 06:22:27;;;;;;;6.28;5.68;;;;;;;19.74;54.38;94891.38;5058235;28;20171;-72
2023/06/30 06:24:53;;;;;;;6.80;6.10;;;;;;;19.92;53.03;94894.47;5053522;28;20024;-72
2023/06/30 06:27:18;;;;;;;7.30;5.90;;;;;;;19.90;53.62;94880.66;5052430;28;20103;-72
2023/06/30 06:29:44;;;;;;;6.40;5.80;;;;;;;20.09;53.05;94885.34;5052559;28;20029;-72
2023/06/30 06:32:09;;;;;;;7.10;5.97;;;;;;;20.18;52.61;94877.34;5052302;28;20029;-72
2023/06/30 06:34:35;;;;;;;6.35;5.75;;;;;;;20.43;52.52;94862.81;5034594;28;20041;-72
2023/06/30 06:37:00;;;;;;;7.85;5.53;;;;;;;19.93;53.39;94885.56;5051774;28;20055;-72
2023/06/30 06:39:26;;;;;;;7.68;6.18;;;;;;;20.07;53.17;94866.25;5042949;28;20112;-72
2023/06/30 06:41:51;;;;;;;7.00;6.30;;;;;;;20.08;52.82;94880.25;5070225;28;20403;-72
2023/06/30 06:44:17;;;;;;;7.78;5.90;;;;;;;20.26;52.38;94879.88;5046128;28;20045;-72
2023/06/30 06:46:43;;;;;;;7.13;6.13;;;;;;;20.31;53.58;94885.41;5053401;28;20032;-72
2023/06/30 06:49:08;;;;;;;8.18;6.85;;;;;;;19.44;54.34;94875.50;5070967;28;20116;-72
2023/06/30 06:51:33;;;;;;;8.43;5.90;;;;;;;20.05;53.33;94880.63;5069601;28;20032;-72
2023/06/30 06:53:59;;;;;;;7.93;6.10;;;;;;;20.56;52.85;94874.53;5071824;28;20033;-75
2023/06/30 06:56:24;;;;;;;7.93;6.32;;;;;;;20.77;52.97;94877.19;5071531;28;20028;-75
2023/06/30 06:58:50;;;;;;;6.70;5.95;;;;;;;21.25;50.90;94877.41;5051790;28;20029;-73
2023/06/30 07:01:15;;;;;;;7.75;6.20;;;;;;;21.55;50.09;94882.53;5050250;28;20110;-72
2023/06/30 07:03:41;;;;;;;7.57;6.05;;;;;;;21.76;49.26;94866.63;5069026;28;20025;-72
2023/06/30 07:06:06;;;;;;;8.10;6.32;;;;;;;21.80;48.36;94873.16;5052965;28;20037;-72
2023/06/30 07:08:34;;;;;;;8.05;6.20;;;;;;;21.70;48.84;94838.31;5071399;28;20399;-72
2023/06/30 07:11:00;;;;;;;7.30;6.55;;;;;;;21.91;48.61;94863.03;5069701;28;20040;-73
2023/06/30 07:13:26;;;;;;;7.90;7.10;;;;;;;21.55;49.53;94848.19;5069247;28;20032;-72
2023/06/30 07:15:51;;;;;;;7.53;6.78;;;;;;;21.88;48.15;94866.88;5071100;28;20029;-73
2023/06/30 07:18:17;;;;;;;7.28;6.57;;;;;;;21.86;48.41;94863.63;5063531;28;20407;-73
2023/06/30 07:20:50;;;;;;;9.43;7.00;;;;;;;21.83;48.24;94862.19;5046582;28;20033;-73
2023/06/30 07:23:16;;;;;;;7.43;6.32;;;;;;;22.05;47.64;94854.16;5053789;28;20059;-73
2023/06/30 07:25:42;;;;;;;7.35;6.32;;;;;;;22.32;47.32;94854.31;5053263;28;20112;-73
2023/06/30 07:28:08;;;;;;;9.90;5.82;;;;;;;22.35;47.78;94853.91;5071058;28;20025;-73
2023/06/30 07:30:33;;;;;;;6.65;6.05;;;;;;;22.52;47.58;94847.22;5053187;28;20032;-73
2023/06/30 07:32:59;;;;;;;9.48;6.10;;;;;;;22.34;46.66;94845.13;5069919;28;20041;-73
2023/06/30 07:35:24;;;;;;;5.32;4.82;;;;;;;22.52;45.51;94849.88;5069932;28;20024;-72
2023/06/30 07:37:50;;;;;;;6.15;5.05;;;;;;;22.92;45.05;94844.63;5052564;28;20422;-72
2023/06/30 07:40:15;;;;;;;7.60;4.65;;;;;;;21.96;45.56;94845.56;5051891;28;20440;-72
2023/06/30 07:42:41;;;;;;;7.25;5.32;;;;;;;22.35;46.64;94849.41;5058684;28;20029;-73
2023/06/30 07:45:08;;;;;;;8.13;5.60;;;;;;;22.14;48.09;94852.97;5068880;28;20025;-73
2023/06/30 07:47:33;;;;;;;8.68;5.03;;;;;;;22.12;47.70;94849.72;5070853;28;20024;-73
2023/06/30 07:50:02;;;;;;;5.70;5.00;;;;;;;22.51;45.51;94850.88;5070507;28;20076;-73
2023/06/30 07:52:28;;;;;;;9.35;5.35;;;;;;;22.50;46.17;94850.06;5070747;28;20083;-72
2023/06/30 07:54:55;;;;;;;5.45;4.95;;;;;;;22.70;46.50;94844.81;5068908;28;20479;-72
2023/06/30 07:57:21;;;;;;;6.00;5.00;;;;;;;22.67;45.37;94847.03;5064912;28;20033;-72
2023/06/30 07:59:47;;;;;;;6.38;4.45;;;;;;;22.57;45.70;94839.50;5050842;28;20490;-72
2023/06/30 08:02:12;;;;;;;7.72;4.10;;;;;;;23.14;44.30;94845.28;5067986;28;20039;-73
2023/06/30 08:04:41;;;;;;;8.52;4.63;;;;;;;22.91;45.42;94841.19;5068852;28;20029;-73
2023/06/30 08:07:06;;;;;;;5.13;4.07;;;;;;;22.98;45.38;94843.84;5069870;28;20033;-73
2023/06/30 08:09:32;;;;;;;6.43;4.13;;;;;;;22.93;44.04;94839.16;5068880;28;20028;-73
2023/06/30 08:11:58;;;;;;;4.32;3.88;;;;;;;23.01;44.05;94838.16;5025050;28;20025;-74
2023/06/30 08:14:23;;;;;;;5.13;2.67;;;;;;;22.99;42.80;94834.09;5054835;28;20040;-74
2023/06/30 08:16:49;;;;;;;4.25;3.10;;;;;;;23.18;41.65;94841.22;5055797;28;20043;-73
2023/06/30 08:19:14;;;;;;;4.57;2.70;;;;;;;23.19;40.14;94841.00;5062783;28;20509;-72
2023/06/30 08:21:40;;;;;;;2.72;2.20;;;;;;;23.88;40.24;94827.47;5059345;28;20029;-73
2023/06/30 08:24:05;;;;;;;6.13;4.20;;;;;;;23.98;41.68;94814.56;5054503;28;20078;-73
2023/06/30 08:26:30;;;;;;;8.48;4.22;;;;;;;23.81;41.76;94824.84;5067132;28;20486;-73
2023/06/30 08:28:56;;;;;;;5.85;3.63;;;;;;;23.43;42.85;94801.66;5057953;28;20031;-73
2023/06/30 08:31:21;;;;;;;6.50;3.72;;;;;;;23.51;43.14;94814.66;5040469;28;20111;-74
2023/06/30 08:33:47;;;;;;;7.10;4.00;;;;;;;23.68;40.50;94811.56;5069179;28;20029;-73
2023/06/30 08:36:12;;;;;;;3.88;3.10;;;;;;;24.03;39.62;94807.59;5067824;28;20024;-73
2023/06/30 08:38:37;;;;;;;3.63;2.70;;;;;;;24.05;38.63;94789.66;5067108;28;20465;-75
2023/06/30 08:41:03;;;;;;;4.25;2.30;;;;;;;23.98;39.24;94791.50;5031264;28;20483;-75
2023/06/30 08:43:29;;;;;;;3.30;2.80;;;;;;;24.16;39.81;94795.34;5032848;28;20517;-76
2023/06/30 08:45:54;;;;;;;3.53;2.45;;;;;;;23.86;39.88;94782.59;5032542;28;20061;-75
2023/06/30 08:48:22;;;;;;;6.65;3.08;;;;;;;23.75;41.15;94791.19;5032710;28;20044;-76
2023/06/30 08:50:48;;;;;;;3.60;2.80;;;;;;;23.46;40.25;94766.78;5049200;28;20086;-76
2023/06/30 08:53:13;;;;;;;3.55;2.38;;;;;;;23.67;38.96;94786.09;5032614;28;20036;-76
2023/06/30 08:55:39;;;;;;;4.50;2.85;;;;;;;24.09;37.77;94784.72;5049213;28;20041;-75
2023/06/30 08:58:05;;;;;;;4.15;2.28;;;;;;;24.23;37.50;94777.53;5036024;28;20028;-75
2023/06/30 09:00:30;;;;;;;2.75;1.83;;;;;;;24.22;36.78;94771.41;5068666;28;20051;-75
2023/06/30 09:02:58;;;;;;;4.40;2.10;;;;;;;24.22;37.03;94770.59;5052350;28;20086;-76
2023/06/30 09:05:27;;;;;;;3.45;2.15;;;;;;;24.38;37.08;94770.09;5069172;28;20032;-75
2023/06/30 09:07:54;;;;;;;4.25;2.00;;;;;;;24.46;38.63;94774.34;5036555;28;20043;-76
2023/06/30 09:10:24;;;;;;;2.80;2.10;;;;;;;24.38;39.33;94759.47;5035972;28;20048;-75
2023/06/30 09:12:51;;;;;;;3.33;2.63;;;;;;;24.29;38.47;94766.03;5068772;28;20399;-74
2023/06/30 09:15:17;;;;;;;3.67;2.63;;;;;;;24.38;38.17;94770.09;5068849;28;20055;-74
2023/06/30 09:17:43;;;;;;;5.95;2.60;;;;;;;24.66;39.39;94767.09;5068993;28;20105;-75
2023/06/30 09:20:09;;;;;;;3.45;2.75;;;;;;;24.69;39.25;94771.16;5052169;28;20044;-75
2023/06/30 09:22:34;;;;;;;3.22;2.35;;;;;;;24.85;38.02;94770.63;5069020;28;20027;-74
2023/06/30 09:25:00;;;;;;;3.90;2.20;;;;;;;24.94;37.04;94773.81;5051942;28;20028;-74
2023/06/30 09:27:26;;;;;;;4.40;2.30;;;;;;;24.81;37.81;94774.72;5068861;28;20089;-74
2023/06/30 09:29:55;;;;;;;2.50;2.20;;;;;;;23.98;39.06;94767.63;5055813;28;20036;-74
2023/06/30 09:32:31;;;;;;;4.50;2.72;;;;;;;24.26;38.78;94764.63;5072134;28;20086;-73
2023/06/30 09:34:56;;;;;;;4.20;2.33;;;;;;;24.39;37.93;94766.41;5073178;28;20044;-74
2023/06/30 09:37:22;;;;;;;3.53;2.55;;;;;;;24.66;36.58;94764.44;5035366;28;20084;-75
2023/06/30 09:39:51;;;;;;;3.65;2.35;;;;;;;24.71;36.69;94763.75;5060758;28;20086;-75
2023/06/30 09:42:18;;;;;;;4.25;3.10;;;;;;;24.82;36.64;94752.44;5059409;28;20028;-75
2023/06/30 09:44:43;;;;;;;3.25;2.55;;;;;;;24.84;37.40;94752.22;5070444;28;20258;-77
2023/06/30 09:47:12;;;;;;;4.07;2.50;;;;;;;24.88;38.20;94758.75;5072179;28;20478;-77
2023/06/30 09:49:37;;;;;;;3.15;2.65;;;;;;;24.66;37.15;94751.16;5071526;28;20029;-74
2023/06/30 09:52:03;;;;;;;4.22;2.28;;;;;;;25.01;39.01;94758.63;5071573;28;20039;-75
2023/06/30 09:54:29;;;;;;;5.82;2.40;;;;;;;24.43;38.13;94757.03;5073587;28;20029;-75
2023/06/30 09:57:05;;;;;;;4.80;2.83;;;;;;;24.28;37.33;94743.19;5055284;28;20133;-75
2023/06/30 09:59:30;;;;;;;4.82;2.75;;;;;;;24.57;38.68;94741.00;5072109;28;20115;-75
2023/06/30 10:01:56;;;;;;;4.38;2.70;;;;;;;24.81;38.50;94752.66;5070281;28;20059;-75
2023/06/30 10:04:22;;;;;;;4.10;2.60;;;;;;;24.80;38.73;94741.25;5045826;28;20504;-75
2023/06/30 10:06:48;;;;;;;4.25;2.70;;;;;;;24.67;39.01;94728.88;5064710;28;20028;-75
2023/06/30 10:09:14;;;;;;;5.75;3.20;;;;;;;24.69;37.88;94741.94;5036357;28;20055;-76
2023/06/30 10:11:39;;;;;;;5.55;3.20;;;;;;;24.48;37.95;94737.78;5035220;28;20491;-76
2023/06/30 10:14:05;;;;;;;3.67;3.20;;;;;;;24.52;37.87;94739.81;5043036;28;20040;-76
2023/06/30 10:16:30;;;;;;;4.57;3.00;;;;;;;24.63;37.88;94725.03;5039318;28;20075;-73
2023/06/30 10:18:56;;;;;;;4.97;3.20;;;;;;;24.70;38.02;94728.44;5038866;28;20064;-76
2023/06/30 10:21:21;;;;;;;4.10;3.38;;;;;;;24.74;39.79;94723.53;5069449;28;20029;-76
2023/06/30 10:23:47;;;;;;;5.53;3.17;;;;;;;24.86;38.33;94716.44;5051442;28;20048;-76
2023/06/30 10:26:14;;;;;;;5.60;3.40;;;;;;;24.84;38.15;94712.38;5044586;28;20406;-76
2023/06/30 10:28:40;;;;;;;3.00;2.55;;;;;;;25.06;37.19;94710.94;5038416;28;20399;-74
2023/06/30 10:31:05;;;;;;;3.40;3.00;;;;;;;24.93;36.93;94719.88;5067050;28;20062;-74
2023/06/30 10:33:31;;;;;;;4.70;2.88;;;;;;;24.86;38.59;94697.84;5034636;28;20044;-73
2023/06/30 10:35:57;;;;;;;6.20;3.28;;;;;;;24.51;41.00;94713.47;5058256;28;20032;-73
2023/06/30 10:38:22;;;;;;;4.50;3.25;;;;;;;24.92;39.36;94702.28;5071094;28;20049;-73
2023/06/30 10:40:47;;;;;;;4.03;2.88;;;;;;;24.92;39.08;94704.16;5053317;28;20028;-74
2023/06/30 10:43:13;;;;;;;6.30;3.40;;;;;;;24.72;39.98;94701.66;5071137;28;20029;-73
2023/06/30 10:46:05;;;;;;;7.90;3.30;;;;;;;24.48;39.44;94700.63;5070982;28;20036;-74
2023/06/30 10:48:30;;;;;;;6.45;3.60;;;;;;;24.50;38.12;94687.94;5072512;28;20037;-74
2023/06/30 10:50:56;;;;;;;4.93;3.30;;;;;;;24.76;39.86;94681.59;5070442;28;20063;-73
2023/06/30 10:53:21;;;;;;;4.03;3.20;;;;;;;24.42;40.18;94669.59;5065735;28;20032;-74
2023/06/30 10:55:47;;;;;;;3.72;3.40;;;;;;;24.75;38.65;94677.31;5054200;28;20522;-74
2023/06/30 10:58:23;;;;;;;4.43;3.53;;;;;;;24.39;39.08;94678.00;5050046;28;20029;-73
2023/06/30 11:01:07;;;;;;;5.88;3.20;;;;;;;24.71;40.47;94673.47;5050739;28;20614;-74
2023/06/30 11:04:11;;;;;;;3.28;2.97;;;;;;;24.79;41.68;94681.16;5052308;28;20044;-74
2023/06/30 11:06:36;;;;;;;8.10;3.38;;;;;;;24.83;41.91;94669.09;5001504;28;20037;-74
2023/06/30 11:09:03;;;;;;;4.35;3.40;;;;;;;24.19;41.27;94675.50;5050713;28;20478;-75
2023/06/30 11:11:46;;;;;;;5.45;3.60;;;;;;;24.29;41.15;94663.38;5046899;28;20035;-74
2023/06/30 11:14:11;;;;;;;3.78;3.35;;;;;;;24.46;39.98;94668.16;5059158;28;20041;-74
2023/06/30 11:17:05;;;;;;;5.30;3.95;;;;;;;24.72;39.67;94672.47;5050356;28;20051;-74
2023/06/30 11:19:31;;;;;;;4.28;3.88;;;;;;;24.74;39.03;94667.75;5050346;28;20029;-74
2023/06/30 11:22:21;;;;;;;5.32;4.00;;;;;;;25.02;39.83;94667.28;5033708;28;20385;-75
2023/06/30 11:24:47;;;;;;;9.70;3.83;;;;;;;25.01;39.55;94655.00;5050423;28;20028;-74
2023/06/30 11:27:12;;;;;;;4.88;3.67;;;;;;;25.13;39.11;94663.03;5033541;28;20415;-74
2023/06/30 11:29:38;;;;;;;6.10;3.90;;;;;;;25.27;39.97;94651.28;5034831;28;20514;-74
2023/06/30 11:32:04;;;;;;;6.50;4.03;;;;;;;25.58;39.09;94654.81;5033144;28;20497;-74